Time;durP1;ratioP1;P1;durP2;ratioP2;P2;SDS_P1;SDS_P2;PMS_P1;PMS_P2;Temp;Humidity;BMP_temperature;BMP_pressure;BME280_temperature;BME280_humidity;BME280_pressure;Samples;Min_cycle;Max_cycle;Signal;HPM_P1;HPM_P2
2023/08/06 00:00:43;;;;;;;3.40;2.70;;;;;;;14.20;86.04;94881.53;4933157;28;20200;-88
2023/08/06 00:03:08;;;;;;;4.60;3.00;;;;;;;14.27;85.48;94874.59;4952367;29;20189;-89
2023/08/06 00:05:33;;;;;;;3.00;2.70;;;;;;;14.20;85.56;94871.91;4952937;28;20260;-88
2023/08/06 00:07:59;;;;;;;4.07;3.00;;;;;;;14.04;86.88;94870.34;4931621;28;20275;-89
2023/08/06 00:10:24;;;;;;;3.53;3.00;;;;;;;14.07;86.96;94877.00;4949951;29;20192;-88
2023/08/06 00:12:50;;;;;;;4.57;3.07;;;;;;;14.10;86.30;94876.63;4962904;28;20224;-89
2023/08/06 00:15:15;;;;;;;3.40;2.50;;;;;;;14.02;86.94;94874.13;4949179;29;20228;-89
2023/08/06 00:17:40;;;;;;;5.53;2.80;;;;;;;14.10;86.14;94874.03;4918812;29;20601;-89
2023/08/06 00:20:07;;;;;;;2.97;2.63;;;;;;;14.07;86.01;94861.34;4940136;29;20209;-88
2023/08/06 00:22:33;;;;;;;3.60;2.47;;;;;;;14.04;86.33;94864.31;4950160;28;20180;-89
2023/08/06 00:24:58;;;;;;;2.83;2.63;;;;;;;13.94;87.09;94867.22;4950945;28;20259;-89
2023/08/06 00:27:24;;;;;;;3.77;2.47;;;;;;;13.92;86.70;94860.56;4938024;28;20224;-90
2023/08/06 00:29:49;;;;;;;3.20;2.30;;;;;;;13.88;87.23;94865.38;4955036;28;20647;-89
2023/08/06 00:32:15;;;;;;;2.70;2.50;;;;;;;14.00;86.03;94857.84;4935097;29;20237;-88
2023/08/06 00:34:43;;;;;;;2.63;2.23;;;;;;;13.99;86.49;94848.41;4930881;28;20200;-89
2023/08/06 00:37:09;;;;;;;3.03;2.70;;;;;;;14.02;85.88;94842.81;4950228;28;20306;-89
2023/08/06 00:39:34;;;;;;;3.40;2.97;;;;;;;14.00;86.12;94850.03;4949754;28;20215;-89
2023/08/06 00:41:59;;;;;;;3.00;2.67;;;;;;;13.95;85.79;94841.94;4949280;28;20192;-88
2023/08/06 00:44:25;;;;;;;3.70;2.63;;;;;;;13.78;87.07;94844.78;4945833;28;20232;-89
2023/08/06 00:46:51;;;;;;;4.80;2.77;;;;;;;13.78;86.85;94847.41;4963749;28;20714;-88
2023/08/06 00:49:16;;;;;;;3.67;2.80;;;;;;;13.78;86.98;94843.94;4947659;29;20340;-89
2023/08/06 00:51:42;;;;;;;2.80;2.60;;;;;;;13.85;86.47;94831.78;4941393;28;20242;-89
2023/08/06 00:54:09;;;;;;;3.70;3.00;;;;;;;13.76;86.70;94830.28;4949665;28;20192;-89
2023/08/06 00:56:35;;;;;;;3.10;2.80;;;;;;;13.72;86.74;94821.22;4953230;28;20224;-88
2023/08/06 00:59:01;;;;;;;5.33;2.50;;;;;;;13.65;87.39;94820.34;4942013;29;20193;-88
2023/08/06 01:01:26;;;;;;;4.37;2.53;;;;;;;13.69;87.06;94817.16;4937460;28;20177;-89
2023/08/06 01:03:53;;;;;;;3.40;2.80;;;;;;;13.74;86.58;94816.63;4951349;28;20201;-89
2023/08/06 01:06:29;;;;;;;3.53;2.50;;;;;;;13.68;87.15;94809.53;4953598;28;20202;-93
2023/08/06 01:08:59;;;;;;;3.53;2.83;;;;;;;13.63;87.74;94807.47;4969924;28;20177;-91
2023/08/06 01:11:33;;;;;;;4.87;3.00;;;;;;;13.65;87.76;94802.88;4975275;28;20203;-92
2023/08/06 01:14:33;;;;;;;4.17;2.40;;;;;;;13.71;87.56;94804.75;4973403;28;20238;-91
2023/08/06 01:16:59;;;;;;;3.20;2.90;;;;;;;13.63;87.90;94801.47;4968894;28;20252;-93
2023/08/06 01:19:25;;;;;;;4.97;2.77;;;;;;;13.45;88.78;94799.25;4956695;28;20176;-93
2023/08/06 01:21:50;;;;;;;4.70;2.80;;;;;;;13.54;88.57;94798.16;4975019;28;20193;-92
2023/08/06 01:24:15;;;;;;;3.83;2.90;;;;;;;13.33;89.16;94804.91;4970862;28;20192;-92
2023/08/06 01:26:54;;;;;;;3.93;3.03;;;;;;;13.24;90.17;94800.78;4938694;29;20209;-89
2023/08/06 01:29:42;;;;;;;3.87;2.87;;;;;;;13.45;88.50;94788.81;4944283;28;20717;-88
2023/08/06 01:32:10;;;;;;;2.63;2.43;;;;;;;13.52;87.95;94794.94;4932809;28;20718;-89
2023/08/06 01:34:39;;;;;;;3.70;2.30;;;;;;;13.54;88.06;94787.72;4942685;29;20237;-89
2023/08/06 01:37:04;;;;;;;4.10;2.70;;;;;;;13.52;87.77;94790.50;4936510;28;20208;-89
2023/08/06 01:39:33;;;;;;;3.43;2.60;;;;;;;13.57;87.29;94787.34;4957087;28;20191;-90
2023/08/06 01:41:58;;;;;;;3.03;2.23;;;;;;;13.64;87.04;94780.41;4953160;28;20176;-89
2023/08/06 01:44:23;;;;;;;2.60;2.30;;;;;;;13.63;86.37;94784.00;4940740;28;20216;-90
2023/08/06 01:46:49;;;;;;;3.63;2.47;;;;;;;13.49;87.91;94782.22;4952181;28;20208;-89
2023/08/06 01:49:14;;;;;;;4.60;2.20;;;;;;;13.68;87.10;94779.03;4947190;28;20284;-89
2023/08/06 01:51:40;;;;;;;3.90;2.47;;;;;;;13.73;86.84;94783.69;4934523;28;20300;-89
2023/08/06 01:54:05;;;;;;;2.63;2.43;;;;;;;13.73;86.83;94778.47;4940032;28;20192;-89
2023/08/06 01:56:30;;;;;;;2.83;2.30;;;;;;;13.66;87.48;94780.22;4930704;28;20322;-89
2023/08/06 01:58:56;;;;;;;2.60;2.30;;;;;;;13.76;86.53;94784.13;4929761;28;20224;-89
2023/08/06 02:01:21;;;;;;;3.67;2.50;;;;;;;13.76;87.42;94784.13;4930458;28;20192;-90
2023/08/06 02:03:46;;;;;;;3.13;2.40;;;;;;;13.68;87.61;94773.81;4932404;28;20190;-91
2023/08/06 02:06:12;;;;;;;6.10;2.60;;;;;;;13.73;87.62;94781.91;4931601;29;20209;-90
2023/08/06 02:08:38;;;;;;;4.07;2.63;;;;;;;13.56;88.48;94776.09;4944809;29;20240;-89
2023/08/06 02:11:03;;;;;;;3.43;2.37;;;;;;;13.87;86.63;94769.81;4952012;29;20297;-89
2023/08/06 02:13:29;;;;;;;3.47;2.37;;;;;;;13.79;86.93;94767.31;4935867;28;20192;-89
2023/08/06 02:15:54;;;;;;;4.57;2.53;;;;;;;13.62;87.78;94756.31;4934265;28;20248;-89
2023/08/06 02:18:20;;;;;;;3.43;2.40;;;;;;;13.55;88.61;94745.00;4936239;28;20188;-90
2023/08/06 02:20:59;;;;;;;4.47;2.50;;;;;;;13.56;88.58;94749.22;4938424;28;20189;-89
2023/08/06 02:23:26;;;;;;;2.30;2.10;;;;;;;13.68;87.65;94736.47;4951849;28;20181;-90
2023/08/06 02:26:02;;;;;;;4.50;2.10;;;;;;;13.64;88.05;94741.25;4953732;28;20220;-89
2023/08/06 02:28:28;;;;;;;4.23;2.73;;;;;;;13.79;87.30;94731.59;4923511;28;20205;-89
2023/08/06 02:30:53;;;;;;;5.23;2.37;;;;;;;13.69;87.51;94738.88;4931262;29;20280;-90
2023/08/06 02:33:19;;;;;;;3.80;2.73;;;;;;;13.81;86.87;94732.19;4952684;28;20236;-90
2023/08/06 02:35:44;;;;;;;7.10;2.50;;;;;;;13.70;86.96;94729.28;4938007;29;20239;-89
2023/08/06 02:38:09;;;;;;;6.33;2.37;;;;;;;13.65;87.49;94737.66;4951342;29;20722;-89
2023/08/06 02:40:35;;;;;;;5.97;2.47;;;;;;;13.83;86.36;94727.59;4951891;28;20184;-88
2023/08/06 02:43:01;;;;;;;5.07;2.33;;;;;;;13.96;85.31;94715.63;4938291;28;20185;-90
2023/08/06 02:45:26;;;;;;;5.53;2.10;;;;;;;14.08;85.37;94704.50;4917295;28;20309;-89
2023/08/06 02:47:51;;;;;;;5.67;2.53;;;;;;;14.03;85.09;94704.25;4938914;28;20232;-89
2023/08/06 02:50:17;;;;;;;4.80;2.33;;;;;;;14.01;85.67;94702.84;4946579;28;20199;-89
2023/08/06 02:52:42;;;;;;;2.73;1.93;;;;;;;14.17;85.13;94690.31;4961397;28;20308;-89
2023/08/06 02:55:08;;;;;;;2.90;2.00;;;;;;;14.08;85.43;94701.91;4947711;29;20232;-90
2023/08/06 02:57:33;;;;;;;3.93;2.43;;;;;;;14.04;85.45;94708.47;4953757;29;20200;-89
2023/08/06 02:59:58;;;;;;;2.67;2.17;;;;;;;14.04;85.74;94723.34;4911169;28;20196;-90
2023/08/06 03:02:24;;;;;;;5.90;2.17;;;;;;;14.10;86.37;94722.59;4935061;29;20201;-91
2023/08/06 03:04:49;;;;;;;3.07;2.20;;;;;;;14.16;86.00;94737.50;4917645;28;20221;-90
2023/08/06 03:07:15;;;;;;;5.33;2.67;;;;;;;14.02;87.38;94723.53;4947845;29;20217;-90
2023/08/06 03:09:40;;;;;;;3.43;2.27;;;;;;;14.20;86.29;94722.25;4961532;28;20188;-90
2023/08/06 03:12:06;;;;;;;3.20;1.93;;;;;;;13.89;88.08;94713.00;4936694;28;20213;-90
2023/08/06 03:14:32;;;;;;;4.40;2.77;;;;;;;14.07;87.51;94712.53;4951246;29;20197;-90
2023/08/06 03:16:58;;;;;;;5.30;2.40;;;;;;;13.97;87.96;94707.66;4966978;28;20213;-90
2023/08/06 03:19:24;;;;;;;5.03;2.60;;;;;;;14.00;88.22;94724.72;4953418;28;20500;-89
2023/08/06 03:21:49;;;;;;;4.63;2.37;;;;;;;13.93;88.69;94722.06;4936688;28;20212;-89
2023/08/06 03:24:15;;;;;;;3.90;2.53;;;;;;;14.01;88.60;94706.25;4949925;28;20235;-89
2023/08/06 03:26:43;;;;;;;2.70;2.20;;;;;;;14.21;87.70;94713.44;4933993;29;20225;-89
2023/08/06 03:29:09;;;;;;;4.10;2.40;;;;;;;14.24;87.65;94726.94;4932462;29;20228;-89
2023/08/06 03:31:35;;;;;;;5.57;2.77;;;;;;;14.32;87.50;94726.78;4933747;29;20571;-89
2023/08/06 03:34:00;;;;;;;5.00;2.60;;;;;;;14.27;87.78;94733.56;4949188;29;20188;-89
2023/08/06 03:36:26;;;;;;;5.40;2.67;;;;;;;14.39;87.25;94725.00;4948257;28;20204;-89
2023/08/06 03:38:51;;;;;;;3.47;2.33;;;;;;;14.39;87.51;94725.00;4938871;28;20670;-89
2023/08/06 03:41:17;;;;;;;3.03;2.67;;;;;;;14.38;87.41;94730.44;4948000;29;20174;-88
2023/08/06 03:43:42;;;;;;;3.13;2.70;;;;;;;14.36;87.94;94732.44;4946275;28;20204;-88
2023/08/06 03:46:08;;;;;;;4.97;2.13;;;;;;;14.52;87.28;94731.38;4932297;29;20216;-88
2023/08/06 03:48:33;;;;;;;6.10;2.60;;;;;;;14.52;87.71;94739.19;4946763;28;20243;-88
2023/08/06 03:51:00;;;;;;;4.23;2.60;;;;;;;14.54;87.60;94739.81;4932067;29;20540;-89
2023/08/06 03:53:26;;;;;;;3.00;2.13;;;;;;;14.43;87.55;94735.91;4937255;28;20188;-88
2023/08/06 03:55:51;;;;;;;4.43;2.10;;;;;;;14.55;86.40;94738.81;4955174;28;20232;-88
2023/08/06 03:58:16;;;;;;;3.33;1.77;;;;;;;14.23;87.28;94738.38;4933953;28;20184;-88
2023/08/06 04:00:42;;;;;;;2.37;1.67;;;;;;;14.15;85.09;94738.50;4936498;28;20188;-88
2023/08/06 04:03:07;;;;;;;3.13;1.63;;;;;;;14.25;84.80;94736.38;4937330;28;20210;-88
2023/08/06 04:05:33;;;;;;;1.40;1.30;;;;;;;14.40;84.19;94742.31;4955932;28;20664;-89
2023/08/06 04:07:59;;;;;;;1.93;1.40;;;;;;;14.45;83.96;94745.19;4930276;28;20185;-88
2023/08/06 04:10:25;;;;;;;1.33;0.97;;;;;;;14.18;83.48;94740.72;4936126;28;20212;-88
2023/08/06 04:12:50;;;;;;;2.07;1.30;;;;;;;14.16;83.13;94742.72;4939055;28;20239;-88
2023/08/06 04:15:15;;;;;;;2.37;1.30;;;;;;;14.05;83.53;94736.22;4936384;28;20228;-88
2023/08/06 04:17:41;;;;;;;2.63;1.30;;;;;;;14.14;82.98;94742.13;4927827;28;20189;-89
2023/08/06 04:20:07;;;;;;;3.23;1.00;;;;;;;14.10;82.51;94739.06;4926180;29;20193;-88
2023/08/06 04:22:32;;;;;;;4.17;1.30;;;;;;;14.08;82.48;94727.19;4938797;28;20550;-88
2023/08/06 04:24:57;;;;;;;2.07;1.03;;;;;;;14.15;82.76;94730.69;4953038;28;20212;-89
2023/08/06 04:27:23;;;;;;;2.30;0.97;;;;;;;14.08;83.07;94733.22;4947579;28;20196;-88
2023/08/06 04:29:48;;;;;;;1.00;0.87;;;;;;;13.85;84.07;94728.22;4950604;28;20208;-88
2023/08/06 04:32:13;;;;;;;1.60;0.90;;;;;;;14.05;83.36;94731.00;4922954;28;20300;-89
2023/08/06 04:34:39;;;;;;;3.37;0.90;;;;;;;14.01;83.43;94724.53;4924216;28;20193;-89
2023/08/06 04:37:04;;;;;;;2.13;0.83;;;;;;;14.16;83.21;94717.44;4957607;28;20329;-89
2023/08/06 04:39:30;;;;;;;2.20;0.90;;;;;;;13.98;83.29;94716.28;4941941;28;20188;-88
2023/08/06 04:41:57;;;;;;;1.47;0.80;;;;;;;14.14;82.82;94719.44;4947959;28;20188;-89
2023/08/06 04:44:23;;;;;;;2.23;1.00;;;;;;;13.98;83.47;94717.09;4925361;29;20196;-88
2023/08/06 04:46:48;;;;;;;1.00;0.90;;;;;;;14.08;83.23;94712.34;4930271;29;20209;-88
2023/08/06 04:49:14;;;;;;;1.80;1.00;;;;;;;13.84;84.38;94715.34;4958151;28;20188;-88
2023/08/06 04:51:39;;;;;;;1.23;0.83;;;;;;;13.84;84.22;94716.16;4951729;28;20291;-89
2023/08/06 04:54:04;;;;;;;1.00;0.60;;;;;;;13.82;84.51;94723.38;4953542;29;20189;-90
2023/08/06 04:56:30;;;;;;;3.90;1.00;;;;;;;13.73;84.77;94719.28;4950380;28;20204;-90
2023/08/06 04:58:55;;;;;;;2.20;0.90;;;;;;;13.98;83.82;94722.31;4947209;29;20225;-89
2023/08/06 05:01:21;;;;;;;1.77;0.87;;;;;;;13.97;83.57;94723.31;4956938;28;20272;-89
2023/08/06 05:03:47;;;;;;;1.40;0.70;;;;;;;14.10;83.87;94728.63;4930427;29;20196;-89
2023/08/06 05:06:12;;;;;;;1.73;0.90;;;;;;;14.04;84.54;94723.34;4932209;29;20215;-89
2023/08/06 05:08:38;;;;;;;1.47;0.80;;;;;;;13.89;85.65;94724.25;4944296;29;20196;-90
2023/08/06 05:11:03;;;;;;;0.93;0.60;;;;;;;14.06;84.95;94729.19;4943643;29;20288;-89
2023/08/06 05:13:29;;;;;;;1.60;0.90;;;;;;;13.92;85.84;94732.69;4942564;29;20283;-90
2023/08/06 05:15:54;;;;;;;2.17;0.93;;;;;;;14.03;84.94;94724.34;4950215;28;20209;-90
2023/08/06 05:18:20;;;;;;;2.30;0.90;;;;;;;13.73;86.63;94724.50;4931470;28;20188;-90
2023/08/06 05:20:45;;;;;;;1.57;0.70;;;;;;;14.05;85.91;94735.41;4928190;28;20228;-90
2023/08/06 05:23:11;;;;;;;0.83;0.83;;;;;;;14.15;84.14;94728.06;4943595;29;20286;-90
2023/08/06 05:25:37;;;;;;;1.47;0.50;;;;;;;13.89;85.65;94728.66;4941567;29;20249;-90
2023/08/06 05:28:03;;;;;;;1.83;0.70;;;;;;;13.60;88.60;94726.97;4941445;29;20189;-89
2023/08/06 05:30:29;;;;;;;1.47;0.67;;;;;;;13.71;88.97;94731.72;4946331;28;20185;-89
2023/08/06 05:32:55;;;;;;;1.03;0.73;;;;;;;13.91;88.50;94737.09;4936095;28;20216;-89
2023/08/06 05:35:21;;;;;;;1.13;0.90;;;;;;;14.15;88.54;94733.28;4947283;28;20304;-90
2023/08/06 05:37:46;;;;;;;1.40;0.80;;;;;;;13.78;90.54;94731.75;4930858;29;20251;-89
2023/08/06 05:40:12;;;;;;;2.40;0.90;;;;;;;13.71;91.11;94734.31;4929523;28;20278;-88
2023/08/06 05:42:37;;;;;;;1.40;0.70;;;;;;;13.90;89.37;94743.31;4940697;29;20200;-88
2023/08/06 05:45:02;;;;;;;1.70;1.00;;;;;;;14.05;90.02;94744.06;4944335;28;20200;-88
2023/08/06 05:47:28;;;;;;;1.33;0.77;;;;;;;14.08;89.71;94729.81;4929191;28;20617;-88
2023/08/06 05:49:53;;;;;;;0.90;0.90;;;;;;;14.18;88.76;94738.13;4947697;28;20662;-88
2023/08/06 05:52:18;;;;;;;0.60;0.47;;;;;;;14.00;88.76;94735.16;4928169;28;20209;-89
2023/08/06 05:54:44;;;;;;;1.03;0.60;;;;;;;14.20;86.94;94737.94;4926510;28;20190;-88
2023/08/06 05:57:09;;;;;;;1.37;0.80;;;;;;;14.08;88.31;94733.22;4934563;28;20219;-88
2023/08/06 05:59:34;;;;;;;0.83;0.50;;;;;;;14.05;87.34;94732.81;4947978;28;20196;-88
2023/08/06 06:02:00;;;;;;;0.90;0.50;;;;;;;14.30;86.67;94741.81;4932824;28;20178;-88
2023/08/06 06:04:25;;;;;;;0.60;0.50;;;;;;;14.25;85.44;94736.38;4951632;29;20237;-88
2023/08/06 06:06:51;;;;;;;1.30;0.70;;;;;;;13.99;86.88;94746.59;4944777;28;20213;-89
2023/08/06 06:09:16;;;;;;;1.27;0.60;;;;;;;14.16;86.35;94746.16;4932162;28;20289;-88
2023/08/06 06:11:41;;;;;;;0.93;0.70;;;;;;;14.06;87.11;94744.88;4940477;29;20224;-88
2023/08/06 06:14:06;;;;;;;1.63;1.10;;;;;;;13.89;87.95;94742.50;4937609;28;20227;-89
2023/08/06 06:16:32;;;;;;;3.83;0.43;;;;;;;13.99;87.59;94739.56;4948729;28;20220;-88
2023/08/06 06:18:57;;;;;;;0.30;0.30;;;;;;;14.07;87.16;94751.69;4934540;28;20189;-87
2023/08/06 06:21:24;;;;;;;0.70;0.50;;;;;;;13.97;87.94;94746.00;4934067;28;20184;-86
2023/08/06 06:23:51;;;;;;;1.70;0.40;;;;;;;14.08;87.84;94753.31;4949752;28;20215;-84
2023/08/06 06:26:16;;;;;;;0.70;0.40;;;;;;;14.32;87.43;94752.91;4938853;28;20220;-85
2023/08/06 06:28:41;;;;;;;0.77;0.30;;;;;;;14.48;85.95;94758.84;4954190;28;20184;-86
2023/08/06 06:31:07;;;;;;;1.17;0.30;;;;;;;14.06;87.40;94765.75;4937872;28;20216;-84
2023/08/06 06:33:32;;;;;;;0.20;0.20;;;;;;;13.93;87.00;94766.41;4933434;28;20212;-87
2023/08/06 06:35:58;;;;;;;0.43;0.23;;;;;;;13.81;88.50;94767.94;4949587;28;20713;-85
2023/08/06 06:38:23;;;;;;;0.63;0.23;;;;;;;14.04;88.19;94767.72;4933315;28;20189;-84
2023/08/06 06:40:58;;;;;;;0.30;0.30;;;;;;;14.01;86.05;94776.75;4932177;28;20259;-85
2023/08/06 06:43:24;;;;;;;0.70;0.30;;;;;;;14.06;86.29;94776.19;4953674;28;20196;-84
2023/08/06 06:45:59;;;;;;;0.30;0.20;;;;;;;13.96;87.79;94776.50;4945018;28;20209;-84
2023/08/06 06:48:30;;;;;;;0.20;0.20;;;;;;;14.04;87.84;94771.13;4930107;28;20184;-86
2023/08/06 06:50:56;;;;;;;0.30;0.30;;;;;;;13.67;90.26;94772.19;4946602;28;20188;-82
2023/08/06 06:53:27;;;;;;;0.47;0.30;;;;;;;14.04;89.05;94773.75;4947879;28;20188;-84
2023/08/06 06:55:55;;;;;;;0.23;0.23;;;;;;;14.04;88.99;94767.72;4947847;28;20205;-86
2023/08/06 06:58:20;;;;;;;0.27;0.20;;;;;;;14.04;88.42;94772.94;4951194;28;20196;-85
2023/08/06 07:00:47;;;;;;;0.30;0.30;;;;;;;13.86;88.40;94768.97;4964382;28;20536;-83
2023/08/06 07:03:12;;;;;;;0.30;0.30;;;;;;;13.70;91.28;94773.66;4923325;28;20634;-83
2023/08/06 07:05:38;;;;;;;0.53;0.23;;;;;;;14.22;88.81;94768.06;4922788;28;20213;-83
2023/08/06 07:08:03;;;;;;;0.93;0.30;;;;;;;14.34;88.80;94769.19;4942170;28;20205;-85
2023/08/06 07:10:29;;;;;;;2.30;0.30;;;;;;;14.54;88.10;94773.78;4935036;28;20194;-83
2023/08/06 07:12:54;;;;;;;0.20;0.20;;;;;;;14.25;87.09;94772.13;4947220;28;20215;-82
2023/08/06 07:15:19;;;;;;;0.20;0.20;;;;;;;14.60;87.18;94781.66;4933288;28;20227;-83
2023/08/06 07:17:45;;;;;;;0.20;0.20;;;;;;;14.53;87.25;94788.63;4947164;28;20188;-85
2023/08/06 07:20:11;;;;;;;0.20;0.20;;;;;;;14.81;86.67;94780.78;4941545;28;20276;-83
2023/08/06 07:22:36;;;;;;;0.20;0.20;;;;;;;14.58;87.96;94788.91;4922950;28;20333;-84
2023/08/06 07:25:01;;;;;;;0.27;0.27;;;;;;;14.67;86.34;94787.75;4923269;28;20240;-85
2023/08/06 07:27:27;;;;;;;0.20;0.20;;;;;;;14.85;84.70;94792.47;4942445;28;20200;-82
2023/08/06 07:29:52;;;;;;;0.60;0.20;;;;;;;14.77;84.91;94800.47;4945357;28;20197;-85
2023/08/06 07:32:17;;;;;;;0.30;0.20;;;;;;;14.73;84.49;94783.53;4949614;28;20270;-84
2023/08/06 07:34:43;;;;;;;1.13;0.50;;;;;;;14.82;84.52;94787.63;4948121;28;20209;-84
2023/08/06 07:37:08;;;;;;;0.20;0.20;;;;;;;14.99;83.65;94786.31;4934147;28;20225;-83
2023/08/06 07:39:33;;;;;;;1.33;0.40;;;;;;;15.06;83.07;94786.34;4941108;28;20197;-82
2023/08/06 07:41:59;;;;;;;0.60;0.40;;;;;;;15.15;83.32;94777.34;4922310;28;20256;-81
2023/08/06 07:44:24;;;;;;;0.73;0.30;;;;;;;15.39;81.99;94785.72;4927580;28;20197;-81
2023/08/06 07:46:49;;;;;;;0.23;0.20;;;;;;;15.50;80.12;94791.19;4925340;29;20263;-79
2023/08/06 07:49:15;;;;;;;0.30;0.30;;;;;;;15.43;80.58;94785.09;4962511;28;20713;-83
2023/08/06 07:51:40;;;;;;;0.63;0.20;;;;;;;15.55;80.37;94787.97;4948069;28;20215;-81
2023/08/06 07:54:06;;;;;;;0.30;0.30;;;;;;;15.57;81.09;94788.59;4947062;28;20219;-80
2023/08/06 07:56:31;;;;;;;0.35;0.30;;;;;;;15.37;80.98;94793.75;4943025;28;20228;-82
2023/08/06 07:58:56;;;;;;;0.30;0.30;;;;;;;15.37;81.85;94795.53;4945351;28;20283;-82
2023/08/06 08:01:22;;;;;;;0.25;0.20;;;;;;;15.26;82.24;94802.94;4941239;28;20196;-82
2023/08/06 08:03:47;;;;;;;1.87;0.40;;;;;;;15.30;81.67;94788.50;4947677;28;20200;-81
2023/08/06 08:06:12;;;;;;;0.20;0.20;;;;;;;15.75;79.59;94796.72;4945792;28;20219;-81
2023/08/06 08:08:38;;;;;;;0.30;0.30;;;;;;;15.91;79.08;94795.56;4964850;28;20251;-83
2023/08/06 08:11:04;;;;;;;0.20;0.20;;;;;;;16.01;78.45;94800.41;4929595;28;20201;-82
2023/08/06 08:13:30;;;;;;;0.70;0.30;;;;;;;16.19;77.72;94798.00;4936681;28;20199;-82
2023/08/06 08:15:59;;;;;;;0.25;0.20;;;;;;;16.33;75.58;94788.31;4950156;28;20200;-81
2023/08/06 08:18:24;;;;;;;0.30;0.30;;;;;;;16.52;76.56;94787.53;4920048;28;20268;-83
2023/08/06 08:20:50;;;;;;;0.30;0.30;;;;;;;16.52;75.71;94792.78;4938211;28;20240;-82
2023/08/06 08:23:15;;;;;;;0.22;0.20;;;;;;;16.22;76.59;94791.56;4945895;28;20243;-82
2023/08/06 08:25:41;;;;;;;0.40;0.30;;;;;;;15.87;77.04;94786.47;4963587;28;20228;-82
2023/08/06 08:28:07;;;;;;;0.45;0.43;;;;;;;16.23;77.06;94785.31;4948891;28;20231;-83
2023/08/06 08:30:32;;;;;;;1.50;0.40;;;;;;;15.99;79.16;94782.28;4946355;28;20654;-81
2023/08/06 08:32:57;;;;;;;0.38;0.38;;;;;;;15.53;81.73;94776.88;4925253;28;20323;-82
2023/08/06 08:35:23;;;;;;;0.28;0.28;;;;;;;15.74;81.07;94786.44;4946854;29;20718;-82
2023/08/06 08:37:48;;;;;;;0.40;0.20;;;;;;;15.79;80.62;94787.47;4940728;28;20347;-83
2023/08/06 08:40:14;;;;;;;0.20;0.20;;;;;;;16.05;80.22;94791.13;4945806;28;20219;-82
2023/08/06 08:42:40;;;;;;;0.20;0.20;;;;;;;16.23;79.48;94780.06;4937873;28;20180;-81
2023/08/06 08:45:13;;;;;;;0.20;0.20;;;;;;;16.07;78.75;94781.25;4947744;28;20216;-81
2023/08/06 08:47:42;;;;;;;0.10;0.10;;;;;;;16.73;76.60;94781.28;4946986;28;20207;-82
2023/08/06 08:50:09;;;;;;;0.20;0.20;;;;;;;16.80;76.02;94776.06;4928019;28;20694;-82
2023/08/06 08:52:35;;;;;;;1.02;0.20;;;;;;;17.05;74.51;94794.53;4940068;28;20197;-82
2023/08/06 08:55:01;;;;;;;0.20;0.20;;;;;;;16.97;74.53;94787.72;4923751;28;20208;-80
2023/08/06 08:57:26;;;;;;;0.25;0.25;;;;;;;17.02;76.05;94797.56;4944940;28;20181;-82
2023/08/06 08:59:52;;;;;;;0.20;0.20;;;;;;;17.11;75.70;94799.78;4935589;28;20193;-83
2023/08/06 09:02:17;;;;;;;0.30;0.30;;;;;;;17.05;75.64;94798.00;4947536;28;20200;-84
2023/08/06 09:04:44;;;;;;;0.30;0.20;;;;;;;17.03;75.04;94807.06;4928824;28;20636;-83
2023/08/06 09:07:11;;;;;;;0.25;0.20;;;;;;;16.24;76.86;94807.88;4946862;28;20898;-83
2023/08/06 09:09:37;;;;;;;0.70;0.30;;;;;;;16.11;78.82;94808.69;4940299;28;20185;-83
2023/08/06 09:12:11;;;;;;;0.52;0.30;;;;;;;15.56;79.54;94816.56;4951594;28;20200;-81
2023/08/06 09:14:36;;;;;;;0.50;0.30;;;;;;;16.19;78.56;94803.25;4928153;28;20284;-81
2023/08/06 09:17:01;;;;;;;0.40;0.40;;;;;;;16.27;76.85;94804.88;4924727;28;20357;-82
2023/08/06 09:19:27;;;;;;;0.45;0.30;;;;;;;16.50;76.06;94812.31;4943970;28;20218;-82
2023/08/06 09:21:53;;;;;;;0.80;0.30;;;;;;;16.60;76.22;94810.91;4947408;28;20204;-80
2023/08/06 09:24:18;;;;;;;1.35;0.30;;;;;;;16.25;78.28;94815.53;4947020;28;20189;-83
2023/08/06 09:26:44;;;;;;;0.70;0.40;;;;;;;16.22;78.35;94821.19;4948710;28;20204;-82
2023/08/06 09:29:14;;;;;;;0.60;0.50;;;;;;;16.80;76.52;94818.00;4954610;28;20199;-83
2023/08/06 09:31:44;;;;;;;0.50;0.45;;;;;;;16.59;77.30;94814.53;4939459;28;20879;-81
2023/08/06 09:34:24;;;;;;;0.55;0.30;;;;;;;16.67;76.88;94824.00;4954860;28;20189;-81
2023/08/06 09:36:55;;;;;;;0.20;0.20;;;;;;;15.84;78.25;94826.94;4937783;28;20239;-84
2023/08/06 09:39:26;;;;;;;0.75;0.30;;;;;;;16.15;78.86;94810.69;4951710;28;20188;-82
2023/08/06 09:41:55;;;;;;;0.40;0.40;;;;;;;16.15;78.64;94818.53;4943275;28;20188;-84
2023/08/06 09:44:23;;;;;;;2.47;0.40;;;;;;;16.37;78.62;94819.19;4937178;28;20223;-84
2023/08/06 09:46:53;;;;;;;0.50;0.50;;;;;;;16.37;77.84;94807.91;4960828;29;20207;-83
2023/08/06 09:49:20;;;;;;;0.40;0.40;;;;;;;16.63;78.30;94821.00;4952479;28;20211;-82
2023/08/06 09:51:46;;;;;;;0.30;0.30;;;;;;;16.21;78.17;94824.81;4954432;28;20216;-83
2023/08/06 09:54:12;;;;;;;0.40;0.40;;;;;;;16.53;77.25;94832.91;4949352;28;20220;-82
2023/08/06 09:56:38;;;;;;;0.57;0.30;;;;;;;16.05;79.24;94841.69;4935400;28;20217;-83
2023/08/06 09:59:06;;;;;;;0.30;0.30;;;;;;;16.23;80.42;94835.88;4939049;28;20224;-85
2023/08/06 10:01:35;;;;;;;0.35;0.35;;;;;;;16.12;79.05;94847.75;4962830;28;20271;-84
2023/08/06 10:04:08;;;;;;;0.30;0.30;;;;;;;15.59;81.04;94842.34;4937594;28;20566;-85
2023/08/06 10:06:35;;;;;;;1.02;0.30;;;;;;;16.10;79.09;94836.69;4951961;28;20228;-83
2023/08/06 10:09:01;;;;;;;0.40;0.40;;;;;;;16.41;77.40;94824.81;4956339;29;20197;-85
2023/08/06 10:11:28;;;;;;;0.50;0.50;;;;;;;16.01;78.34;94823.97;4943298;28;20213;-83
2023/08/06 10:14:03;;;;;;;1.15;0.50;;;;;;;16.25;77.35;94840.91;4954200;28;20682;-84
2023/08/06 10:16:29;;;;;;;1.10;0.52;;;;;;;16.40;78.68;94831.06;4956000;28;20271;-84
2023/08/06 10:18:54;;;;;;;0.73;0.40;;;;;;;16.43;76.93;94828.03;4958941;28;20220;-84
2023/08/06 10:21:21;;;;;;;0.45;0.35;;;;;;;16.31;76.62;94843.56;4941685;28;20635;-84
2023/08/06 10:23:54;;;;;;;0.40;0.40;;;;;;;16.23;77.12;94835.06;4933308;28;20197;-84
2023/08/06 10:26:19;;;;;;;0.75;0.50;;;;;;;15.94;77.71;94862.41;4927625;28;20624;-82
2023/08/06 10:28:44;;;;;;;0.63;0.63;;;;;;;15.82;78.22;94846.47;4958387;28;20223;-83
2023/08/06 10:31:10;;;;;;;0.43;0.40;;;;;;;15.69;79.01;94867.38;4932152;28;20193;-83
2023/08/06 10:33:46;;;;;;;0.60;0.60;;;;;;;15.49;80.11;94859.41;4937192;28;20196;-84
2023/08/06 10:36:12;;;;;;;0.65;0.60;;;;;;;15.36;80.22;94859.31;4934667;28;20284;-82
2023/08/06 10:38:48;;;;;;;0.90;0.50;;;;;;;15.50;81.16;94880.13;4954612;28;20192;-84
2023/08/06 10:41:23;;;;;;;1.67;0.80;;;;;;;14.77;82.45;94868.44;4940535;28;20322;-85
2023/08/06 10:43:49;;;;;;;1.00;0.95;;;;;;;15.10;81.15;94876.47;4939031;28;20191;-83
2023/08/06 10:46:27;;;;;;;1.58;1.10;;;;;;;14.96;81.86;94874.78;4944667;28;20208;-83
2023/08/06 10:48:52;;;;;;;0.60;0.60;;;;;;;15.01;81.60;94888.09;4938925;28;20245;-84
2023/08/06 10:51:17;;;;;;;1.25;1.00;;;;;;;14.92;81.72;94884.00;4948893;28;20189;-84
2023/08/06 10:53:44;;;;;;;2.20;1.00;;;;;;;14.67;83.93;94896.69;4950181;28;20207;-84
2023/08/06 10:56:14;;;;;;;0.73;0.73;;;;;;;14.72;84.48;94874.22;4953619;28;20223;-84
2023/08/06 10:58:40;;;;;;;1.13;0.90;;;;;;;14.18;85.06;94902.63;4940327;28;20666;-83
2023/08/06 11:01:05;;;;;;;1.10;1.00;;;;;;;14.28;85.66;94907.53;4975651;28;20275;-83
2023/08/06 11:03:32;;;;;;;1.37;1.10;;;;;;;14.75;84.73;94907.00;4933740;28;20589;-83
2023/08/06 11:05:58;;;;;;;1.40;1.20;;;;;;;14.57;83.70;94899.59;4941890;28;20212;-83
2023/08/06 11:08:27;;;;;;;4.53;1.80;;;;;;;14.85;82.84;94912.72;4971726;28;20193;-83
2023/08/06 11:10:53;;;;;;;2.43;1.43;;;;;;;14.51;84.24;94907.41;4937266;28;20205;-84
2023/08/06 11:13:20;;;;;;;1.40;1.30;;;;;;;14.43;84.33;94906.50;4969385;28;20205;-84
2023/08/06 11:15:45;;;;;;;2.80;1.60;;;;;;;14.42;83.88;94912.72;4941292;28;20275;-84
2023/08/06 11:18:11;;;;;;;3.67;1.50;;;;;;;14.08;85.39;94930.84;4944333;28;20182;-84
2023/08/06 11:20:36;;;;;;;2.10;1.60;;;;;;;14.28;85.08;94918.00;4931815;28;20185;-83
2023/08/06 11:23:02;;;;;;;3.37;1.87;;;;;;;13.70;86.38;94922.38;4939467;28;20189;-82
2023/08/06 11:25:28;;;;;;;2.00;1.73;;;;;;;14.03;85.68;94914.91;4943699;28;20213;-82
2023/08/06 11:27:53;;;;;;;1.90;1.77;;;;;;;14.11;85.09;94930.47;4939715;28;20215;-83
2023/08/06 11:30:18;;;;;;;4.60;2.10;;;;;;;13.83;85.58;94919.91;4954753;28;20287;-83